sensor_id;sensor_type;location;lat;lon;timestamp;pressure;altitude;pressure_sealevel;temperature;humidity
35307;BME280;21420;52.196;21.416;2024-02-21T00:00:23;100654.17;;;4.50;72.42
35307;BME280;21420;52.196;21.416;2024-02-21T00:02:50;100657.31;;;4.51;72.39
35307;BME280;21420;52.196;21.416;2024-02-21T00:05:17;100651.07;;;4.51;72.35
35307;BME280;21420;52.196;21.416;2024-02-21T00:07:44;100651.52;;;4.51;72.42
35307;BME280;21420;52.196;21.416;2024-02-21T00:10:11;100654.46;;;4.50;72.38
35307;BME280;21420;52.196;21.416;2024-02-21T00:12:37;100655.23;;;4.49;72.29
35307;BME280;21420;52.196;21.416;2024-02-21T00:15:05;100660.15;;;4.50;72.37
35307;BME280;21420;52.196;21.416;2024-02-21T00:17:33;100655.65;;;4.50;72.41
35307;BME280;21420;52.196;21.416;2024-02-21T00:19:59;100655.27;;;4.50;72.45
35307;BME280;21420;52.196;21.416;2024-02-21T00:22:26;100655.85;;;4.51;72.46
35307;BME280;21420;52.196;21.416;2024-02-21T00:24:55;100654.01;;;4.51;72.42
35307;BME280;21420;52.196;21.416;2024-02-21T00:27:22;100656.02;;;4.50;72.31
35307;BME280;21420;52.196;21.416;2024-02-21T00:29:49;100653.11;;;4.49;72.42
35307;BME280;21420;52.196;21.416;2024-02-21T00:32:16;100656.15;;;4.48;72.42
35307;BME280;21420;52.196;21.416;2024-02-21T00:34:43;100655.16;;;4.50;72.39
35307;BME280;21420;52.196;21.416;2024-02-21T00:37:10;100656.30;;;4.51;72.44
35307;BME280;21420;52.196;21.416;2024-02-21T00:39:37;100654.73;;;4.50;72.45
35307;BME280;21420;52.196;21.416;2024-02-21T00:42:04;100651.96;;;4.50;72.50
35307;BME280;21420;52.196;21.416;2024-02-21T00:44:31;100651.25;;;4.51;72.51
35307;BME280;21420;52.196;21.416;2024-02-21T00:46:57;100651.02;;;4.51;72.52
35307;BME280;21420;52.196;21.416;2024-02-21T00:49:24;100645.64;;;4.52;72.61
35307;BME280;21420;52.196;21.416;2024-02-21T00:51:51;100646.22;;;4.53;72.52
35307;BME280;21420;52.196;21.416;2024-02-21T00:54:18;100650.83;;;4.54;72.56
35307;BME280;21420;52.196;21.416;2024-02-21T00:56:45;100641.99;;;4.53;72.49
35307;BME280;21420;52.196;21.416;2024-02-21T00:59:11;100640.59;;;4.52;72.48
35307;BME280;21420;52.196;21.416;2024-02-21T01:01:38;100633.20;;;4.50;72.53
35307;BME280;21420;52.196;21.416;2024-02-21T01:04:11;100637.60;;;4.49;72.47
35307;BME280;21420;52.196;21.416;2024-02-21T01:06:38;100631.47;;;4.49;72.47
35307;BME280;21420;52.196;21.416;2024-02-21T01:09:05;100633.66;;;4.48;72.52
35307;BME280;21420;52.196;21.416;2024-02-21T01:11:32;100631.58;;;4.48;72.56
35307;BME280;21420;52.196;21.416;2024-02-21T01:13:58;100631.91;;;4.46;72.57
35307;BME280;21420;52.196;21.416;2024-02-21T01:16:26;100630.46;;;4.46;72.56
35307;BME280;21420;52.196;21.416;2024-02-21T01:18:52;100626.42;;;4.44;72.54
35307;BME280;21420;52.196;21.416;2024-02-21T01:21:19;100622.06;;;4.41;72.51
35307;BME280;21420;52.196;21.416;2024-02-21T01:23:46;100617.88;;;4.39;72.61
35307;BME280;21420;52.196;21.416;2024-02-21T01:26:12;100620.98;;;4.37;72.64
35307;BME280;21420;52.196;21.416;2024-02-21T01:28:41;100619.63;;;4.37;72.61
35307;BME280;21420;52.196;21.416;2024-02-21T01:31:08;100616.70;;;4.35;72.60
35307;BME280;21420;52.196;21.416;2024-02-21T01:33:35;100614.50;;;4.33;72.60
35307;BME280;21420;52.196;21.416;2024-02-21T01:36:03;100613.52;;;4.34;72.58
35307;BME280;21420;52.196;21.416;2024-02-21T01:38:30;100612.48;;;4.35;72.67
35307;BME280;21420;52.196;21.416;2024-02-21T01:40:58;100607.63;;;4.37;72.81
35307;BME280;21420;52.196;21.416;2024-02-21T01:43:25;100604.05;;;4.37;72.68
35307;BME280;21420;52.196;21.416;2024-02-21T01:45:54;100605.66;;;4.39;72.66
35307;BME280;21420;52.196;21.416;2024-02-21T01:48:22;100606.73;;;4.41;72.65
35307;BME280;21420;52.196;21.416;2024-02-21T01:50:50;100606.77;;;4.42;72.72
35307;BME280;21420;52.196;21.416;2024-02-21T01:53:27;100605.04;;;4.40;72.79
35307;BME280;21420;52.196;21.416;2024-02-21T01:55:56;100602.86;;;4.41;72.72
35307;BME280;21420;52.196;21.416;2024-02-21T01:58:23;100601.60;;;4.43;72.80
35307;BME280;21420;52.196;21.416;2024-02-21T02:00:50;100601.06;;;4.42;72.86
35307;BME280;21420;52.196;21.416;2024-02-21T02:03:17;100601.33;;;4.43;72.74
35307;BME280;21420;52.196;21.416;2024-02-21T02:05:48;100599.30;;;4.45;72.86
35307;BME280;21420;52.196;21.416;2024-02-21T02:08:17;100596.95;;;4.46;72.82
35307;BME280;21420;52.196;21.416;2024-02-21T02:10:45;100596.02;;;4.47;72.84
35307;BME280;21420;52.196;21.416;2024-02-21T02:13:12;100596.64;;;4.49;72.88
35307;BME280;21420;52.196;21.416;2024-02-21T02:18:06;100597.55;;;4.54;72.87
35307;BME280;21420;52.196;21.416;2024-02-21T02:20:33;100598.60;;;4.53;72.88
35307;BME280;21420;52.196;21.416;2024-02-21T02:23:16;100598.05;;;4.54;72.96
35307;BME280;21420;52.196;21.416;2024-02-21T02:25:43;100597.77;;;4.55;72.92
35307;BME280;21420;52.196;21.416;2024-02-21T02:28:10;100596.39;;;4.56;72.88
35307;BME280;21420;52.196;21.416;2024-02-21T02:30:37;100598.16;;;4.57;72.94
35307;BME280;21420;52.196;21.416;2024-02-21T02:33:04;100594.70;;;4.57;72.93
35307;BME280;21420;52.196;21.416;2024-02-21T02:35:32;100591.46;;;4.56;72.95
35307;BME280;21420;52.196;21.416;2024-02-21T02:37:58;100596.02;;;4.56;72.88
35307;BME280;21420;52.196;21.416;2024-02-21T02:40:25;100594.48;;;4.57;72.90
35307;BME280;21420;52.196;21.416;2024-02-21T02:42:53;100594.21;;;4.58;73.01
35307;BME280;21420;52.196;21.416;2024-02-21T02:45:22;100591.36;;;4.61;72.98
35307;BME280;21420;52.196;21.416;2024-02-21T02:47:56;100587.05;;;4.62;72.97
35307;BME280;21420;52.196;21.416;2024-02-21T02:50:26;100586.19;;;4.62;73.03
35307;BME280;21420;52.196;21.416;2024-02-21T02:52:54;100588.08;;;4.63;73.02
35307;BME280;21420;52.196;21.416;2024-02-21T02:55:21;100586.81;;;4.63;73.04
35307;BME280;21420;52.196;21.416;2024-02-21T02:57:48;100587.05;;;4.65;73.00
35307;BME280;21420;52.196;21.416;2024-02-21T03:00:15;100588.08;;;4.66;72.99
35307;BME280;21420;52.196;21.416;2024-02-21T03:02:44;100587.27;;;4.67;73.04
35307;BME280;21420;52.196;21.416;2024-02-21T03:05:18;100589.09;;;4.68;73.09
35307;BME280;21420;52.196;21.416;2024-02-21T03:07:47;100585.62;;;4.68;73.07
35307;BME280;21420;52.196;21.416;2024-02-21T03:10:14;100587.13;;;4.68;73.09
35307;BME280;21420;52.196;21.416;2024-02-21T03:12:44;100584.73;;;4.68;73.18
35307;BME280;21420;52.196;21.416;2024-02-21T03:15:11;100587.32;;;4.66;73.16
35307;BME280;21420;52.196;21.416;2024-02-21T03:17:39;100588.05;;;4.68;73.13
35307;BME280;21420;52.196;21.416;2024-02-21T03:20:06;100579.36;;;4.64;73.24
35307;BME280;21420;52.196;21.416;2024-02-21T03:22:39;100587.83;;;4.69;73.16
35307;BME280;21420;52.196;21.416;2024-02-21T03:25:08;100586.73;;;4.70;73.17
35307;BME280;21420;52.196;21.416;2024-02-21T03:27:35;100582.96;;;4.72;73.28
35307;BME280;21420;52.196;21.416;2024-02-21T03:30:02;100582.77;;;4.74;73.19
35307;BME280;21420;52.196;21.416;2024-02-21T03:32:29;100582.81;;;4.73;73.17
35307;BME280;21420;52.196;21.416;2024-02-21T03:34:56;100582.31;;;4.72;73.24
35307;BME280;21420;52.196;21.416;2024-02-21T03:37:23;100582.27;;;4.71;73.19
35307;BME280;21420;52.196;21.416;2024-02-21T03:39:50;100580.70;;;4.71;73.19
35307;BME280;21420;52.196;21.416;2024-02-21T03:42:16;100580.50;;;4.69;73.19
35307;BME280;21420;52.196;21.416;2024-02-21T03:44:44;100581.73;;;4.66;73.27
35307;BME280;21420;52.196;21.416;2024-02-21T03:47:10;100583.76;;;4.65;73.20
35307;BME280;21420;52.196;21.416;2024-02-21T03:49:38;100581.36;;;4.65;73.20
35307;BME280;21420;52.196;21.416;2024-02-21T03:52:06;100579.90;;;4.64;73.25
35307;BME280;21420;52.196;21.416;2024-02-21T03:54:33;100584.27;;;4.63;73.27
35307;BME280;21420;52.196;21.416;2024-02-21T03:57:00;100583.75;;;4.60;73.28
35307;BME280;21420;52.196;21.416;2024-02-21T03:59:27;100581.52;;;4.60;73.24
35307;BME280;21420;52.196;21.416;2024-02-21T04:01:53;100581.27;;;4.64;73.41
35307;BME280;21420;52.196;21.416;2024-02-21T04:04:20;100580.55;;;4.66;73.51
35307;BME280;21420;52.196;21.416;2024-02-21T04:06:49;100578.36;;;4.67;73.36
35307;BME280;21420;52.196;21.416;2024-02-21T04:09:16;100574.42;;;4.68;73.40
35307;BME280;21420;52.196;21.416;2024-02-21T04:11:43;100576.19;;;4.70;73.46
35307;BME280;21420;52.196;21.416;2024-02-21T04:14:11;100574.56;;;4.71;73.48
35307;BME280;21420;52.196;21.416;2024-02-21T04:16:40;100573.81;;;4.66;73.45
35307;BME280;21420;52.196;21.416;2024-02-21T04:19:07;100575.27;;;4.63;73.37
35307;BME280;21420;52.196;21.416;2024-02-21T04:21:35;100573.04;;;4.59;73.44
35307;BME280;21420;52.196;21.416;2024-02-21T04:24:02;100575.48;;;4.54;73.35
35307;BME280;21420;52.196;21.416;2024-02-21T04:26:32;100575.05;;;4.45;73.42
35307;BME280;21420;52.196;21.416;2024-02-21T04:28:59;100570.71;;;4.36;73.36
35307;BME280;21420;52.196;21.416;2024-02-21T04:31:27;100566.05;;;4.28;73.45
35307;BME280;21420;52.196;21.416;2024-02-21T04:33:53;100568.21;;;4.23;73.47
35307;BME280;21420;52.196;21.416;2024-02-21T04:36:20;100568.06;;;4.16;73.38
35307;BME280;21420;52.196;21.416;2024-02-21T04:38:47;100566.89;;;4.09;73.38
35307;BME280;21420;52.196;21.416;2024-02-21T04:41:14;100565.84;;;4.02;73.37
35307;BME280;21420;52.196;21.416;2024-02-21T04:43:40;100573.56;;;3.93;73.29
35307;BME280;21420;52.196;21.416;2024-02-21T04:46:07;100569.52;;;3.87;73.32
35307;BME280;21420;52.196;21.416;2024-02-21T04:48:34;100569.80;;;3.80;73.41
35307;BME280;21420;52.196;21.416;2024-02-21T04:51:01;100568.52;;;3.73;73.38
35307;BME280;21420;52.196;21.416;2024-02-21T04:53:27;100565.40;;;3.69;73.45
35307;BME280;21420;52.196;21.416;2024-02-21T04:55:54;100559.19;;;3.67;73.46
35307;BME280;21420;52.196;21.416;2024-02-21T04:58:21;100563.08;;;3.69;73.52
35307;BME280;21420;52.196;21.416;2024-02-21T05:00:48;100565.66;;;3.72;73.57
35307;BME280;21420;52.196;21.416;2024-02-21T05:03:15;100566.59;;;3.76;73.60
35307;BME280;21420;52.196;21.416;2024-02-21T05:05:42;100565.14;;;3.80;73.73
35307;BME280;21420;52.196;21.416;2024-02-21T05:08:09;100560.36;;;3.86;73.77
35307;BME280;21420;52.196;21.416;2024-02-21T05:10:36;100557.52;;;3.89;73.70
35307;BME280;21420;52.196;21.416;2024-02-21T05:13:03;100557.75;;;3.93;73.77
35307;BME280;21420;52.196;21.416;2024-02-21T05:15:31;100552.39;;;3.98;73.84
35307;BME280;21420;52.196;21.416;2024-02-21T05:17:58;100553.48;;;4.01;73.88
35307;BME280;21420;52.196;21.416;2024-02-21T05:20:24;100555.55;;;4.05;73.80
35307;BME280;21420;52.196;21.416;2024-02-21T05:22:52;100559.48;;;4.08;73.76
35307;BME280;21420;52.196;21.416;2024-02-21T05:25:19;100557.31;;;4.09;73.84
35307;BME280;21420;52.196;21.416;2024-02-21T05:27:46;100555.23;;;4.10;73.87
35307;BME280;21420;52.196;21.416;2024-02-21T05:30:12;100553.20;;;4.13;73.85
35307;BME280;21420;52.196;21.416;2024-02-21T05:32:39;100550.55;;;4.17;73.84
35307;BME280;21420;52.196;21.416;2024-02-21T05:35:07;100558.53;;;4.21;73.90
35307;BME280;21420;52.196;21.416;2024-02-21T05:37:34;100558.55;;;4.22;73.87
35307;BME280;21420;52.196;21.416;2024-02-21T05:40:00;100556.45;;;4.23;73.89
35307;BME280;21420;52.196;21.416;2024-02-21T05:42:27;100555.44;;;4.26;73.87
35307;BME280;21420;52.196;21.416;2024-02-21T05:44:54;100559.23;;;4.29;73.82
35307;BME280;21420;52.196;21.416;2024-02-21T05:47:20;100561.61;;;4.32;73.87
35307;BME280;21420;52.196;21.416;2024-02-21T05:49:47;100558.03;;;4.34;73.95
35307;BME280;21420;52.196;21.416;2024-02-21T05:52:15;100553.02;;;4.38;73.89
35307;BME280;21420;52.196;21.416;2024-02-21T05:54:42;100556.01;;;4.42;73.94
35307;BME280;21420;52.196;21.416;2024-02-21T05:57:09;100552.59;;;4.45;73.99
35307;BME280;21420;52.196;21.416;2024-02-21T05:59:38;100553.71;;;4.48;74.10
35307;BME280;21420;52.196;21.416;2024-02-21T06:02:06;100558.60;;;4.51;74.09
35307;BME280;21420;52.196;21.416;2024-02-21T06:04:33;100556.67;;;4.53;74.01
35307;BME280;21420;52.196;21.416;2024-02-21T06:07:01;100553.23;;;4.56;74.03
35307;BME280;21420;52.196;21.416;2024-02-21T06:09:28;100553.52;;;4.59;73.97
35307;BME280;21420;52.196;21.416;2024-02-21T06:11:55;100554.36;;;4.65;73.97
35307;BME280;21420;52.196;21.416;2024-02-21T06:14:22;100552.55;;;4.70;74.02
35307;BME280;21420;52.196;21.416;2024-02-21T06:16:48;100559.13;;;4.78;73.95
35307;BME280;21420;52.196;21.416;2024-02-21T06:19:15;100556.13;;;4.83;74.05
35307;BME280;21420;52.196;21.416;2024-02-21T06:21:42;100557.83;;;4.88;74.00
35307;BME280;21420;52.196;21.416;2024-02-21T06:24:09;100553.81;;;4.96;74.12
35307;BME280;21420;52.196;21.416;2024-02-21T06:26:36;100551.18;;;5.05;74.13
35307;BME280;21420;52.196;21.416;2024-02-21T06:29:03;100550.18;;;5.10;74.07
35307;BME280;21420;52.196;21.416;2024-02-21T06:31:30;100552.02;;;5.14;74.03
35307;BME280;21420;52.196;21.416;2024-02-21T06:33:59;100551.83;;;5.20;74.15
35307;BME280;21420;52.196;21.416;2024-02-21T06:36:26;100550.34;;;5.22;74.13
35307;BME280;21420;52.196;21.416;2024-02-21T06:38:53;100549.19;;;5.22;74.05
35307;BME280;21420;52.196;21.416;2024-02-21T06:41:20;100541.92;;;5.21;73.99
35307;BME280;21420;52.196;21.416;2024-02-21T06:43:47;100550.55;;;5.21;73.92
35307;BME280;21420;52.196;21.416;2024-02-21T06:46:28;100553.36;;;5.19;73.82
35307;BME280;21420;52.196;21.416;2024-02-21T06:48:56;100548.52;;;5.20;73.93
35307;BME280;21420;52.196;21.416;2024-02-21T06:51:24;100552.71;;;5.25;74.11
35307;BME280;21420;52.196;21.416;2024-02-21T06:53:54;100553.39;;;5.31;74.18
35307;BME280;21420;52.196;21.416;2024-02-21T06:56:24;100542.02;;;5.36;74.17
35307;BME280;21420;52.196;21.416;2024-02-21T06:58:56;100544.85;;;5.42;74.17
35307;BME280;21420;52.196;21.416;2024-02-21T07:01:26;100546.05;;;5.51;74.29
35307;BME280;21420;52.196;21.416;2024-02-21T07:03:53;100547.92;;;5.62;74.22
35307;BME280;21420;52.196;21.416;2024-02-21T07:06:20;100545.52;;;5.73;74.11
35307;BME280;21420;52.196;21.416;2024-02-21T07:08:47;100543.51;;;5.85;74.28
35307;BME280;21420;52.196;21.416;2024-02-21T07:11:13;100541.75;;;5.95;74.28
35307;BME280;21420;52.196;21.416;2024-02-21T07:13:41;100544.33;;;6.00;74.15
35307;BME280;21420;52.196;21.416;2024-02-21T07:16:07;100547.17;;;6.05;74.11
35307;BME280;21420;52.196;21.416;2024-02-21T07:18:34;100547.29;;;6.05;74.03
35307;BME280;21420;52.196;21.416;2024-02-21T07:21:01;100543.15;;;6.02;73.97
35307;BME280;21420;52.196;21.416;2024-02-21T07:23:28;100540.91;;;6.03;74.10
35307;BME280;21420;52.196;21.416;2024-02-21T07:25:55;100540.42;;;6.04;73.94
35307;BME280;21420;52.196;21.416;2024-02-21T07:28:22;100539.86;;;6.01;73.80
35307;BME280;21420;52.196;21.416;2024-02-21T07:30:49;100540.95;;;5.98;73.91
35307;BME280;21420;52.196;21.416;2024-02-21T07:33:16;100538.41;;;5.97;73.88
35307;BME280;21420;52.196;21.416;2024-02-21T07:35:42;100542.86;;;5.98;73.95
35307;BME280;21420;52.196;21.416;2024-02-21T07:38:11;100540.45;;;5.99;73.91
35307;BME280;21420;52.196;21.416;2024-02-21T07:40:40;100539.42;;;6.01;74.04
35307;BME280;21420;52.196;21.416;2024-02-21T07:43:07;100539.98;;;6.00;73.97
35307;BME280;21420;52.196;21.416;2024-02-21T07:45:33;100539.34;;;6.06;74.18
35307;BME280;21420;52.196;21.416;2024-02-21T07:48:00;100537.73;;;6.09;74.06
35307;BME280;21420;52.196;21.416;2024-02-21T07:50:27;100528.35;;;6.05;73.88
35307;BME280;21420;52.196;21.416;2024-02-21T07:52:54;100528.04;;;6.02;73.93
35307;BME280;21420;52.196;21.416;2024-02-21T07:55:21;100528.89;;;6.03;73.90
35307;BME280;21420;52.196;21.416;2024-02-21T07:57:48;100525.50;;;6.07;74.06
35307;BME280;21420;52.196;21.416;2024-02-21T08:00:17;100524.56;;;6.11;74.04
35307;BME280;21420;52.196;21.416;2024-02-21T08:02:48;100521.77;;;6.14;74.07
35307;BME280;21420;52.196;21.416;2024-02-21T08:05:15;100518.41;;;6.16;74.08
35307;BME280;21420;52.196;21.416;2024-02-21T08:07:43;100521.59;;;6.23;74.06
35307;BME280;21420;52.196;21.416;2024-02-21T08:10:10;100521.84;;;6.30;74.19
35307;BME280;21420;52.196;21.416;2024-02-21T08:12:36;100522.09;;;6.36;74.24
35307;BME280;21420;52.196;21.416;2024-02-21T08:15:04;100518.48;;;6.40;74.31
35307;BME280;21420;52.196;21.416;2024-02-21T08:17:31;100516.05;;;6.41;74.13
35307;BME280;21420;52.196;21.416;2024-02-21T08:19:58;100513.92;;;6.44;74.00
35307;BME280;21420;52.196;21.416;2024-02-21T08:22:25;100510.09;;;6.48;74.10
35307;BME280;21420;52.196;21.416;2024-02-21T08:24:53;100508.44;;;6.49;74.05
35307;BME280;21420;52.196;21.416;2024-02-21T08:27:20;100501.70;;;6.51;74.19
35307;BME280;21420;52.196;21.416;2024-02-21T08:29:47;100499.70;;;6.58;74.30
35307;BME280;21420;52.196;21.416;2024-02-21T08:32:13;100500.39;;;6.66;74.32
35307;BME280;21420;52.196;21.416;2024-02-21T08:34:40;100498.58;;;6.71;74.34
35307;BME280;21420;52.196;21.416;2024-02-21T08:37:07;100494.60;;;6.77;74.31
35307;BME280;21420;52.196;21.416;2024-02-21T08:39:34;100486.33;;;6.86;74.29
35307;BME280;21420;52.196;21.416;2024-02-21T08:42:01;100487.13;;;7.00;74.47
35307;BME280;21420;52.196;21.416;2024-02-21T08:44:28;100485.71;;;7.12;74.17
35307;BME280;21420;52.196;21.416;2024-02-21T08:46:55;100482.42;;;7.19;74.07
35307;BME280;21420;52.196;21.416;2024-02-21T08:49:23;100474.59;;;7.32;74.28
35307;BME280;21420;52.196;21.416;2024-02-21T08:51:52;100469.61;;;7.54;74.37
35307;BME280;21420;52.196;21.416;2024-02-21T08:54:21;100460.80;;;7.81;74.44
35307;BME280;21420;52.196;21.416;2024-02-21T08:56:48;100465.30;;;8.29;74.80
35307;BME280;21420;52.196;21.416;2024-02-21T08:59:14;100464.99;;;8.75;74.76
35307;BME280;21420;52.196;21.416;2024-02-21T09:01:42;100467.10;;;9.19;74.65
35307;BME280;21420;52.196;21.416;2024-02-21T09:04:09;100463.59;;;9.71;75.03
35307;BME280;21420;52.196;21.416;2024-02-21T09:06:36;100463.58;;;10.06;74.66
35307;BME280;21420;52.196;21.416;2024-02-21T09:09:05;100459.98;;;10.28;74.30
35307;BME280;21420;52.196;21.416;2024-02-21T09:11:34;100458.18;;;10.50;73.94
35307;BME280;21420;52.196;21.416;2024-02-21T09:14:01;100451.84;;;10.72;74.11
35307;BME280;21420;52.196;21.416;2024-02-21T09:16:31;100454.15;;;10.76;73.59
35307;BME280;21420;52.196;21.416;2024-02-21T09:19:02;100461.39;;;10.52;73.00
35307;BME280;21420;52.196;21.416;2024-02-21T09:21:28;100457.06;;;10.21;72.75
35307;BME280;21420;52.196;21.416;2024-02-21T09:23:55;100461.73;;;10.03;72.84
35307;BME280;21420;52.196;21.416;2024-02-21T09:26:26;100462.54;;;9.84;72.89
35307;BME280;21420;52.196;21.416;2024-02-21T09:28:53;100458.49;;;9.67;72.62
35307;BME280;21420;52.196;21.416;2024-02-21T09:31:20;100455.74;;;9.53;72.80
35307;BME280;21420;52.196;21.416;2024-02-21T09:33:47;100452.23;;;9.36;72.62
35307;BME280;21420;52.196;21.416;2024-02-21T09:36:14;100463.37;;;9.27;72.65
35307;BME280;21420;52.196;21.416;2024-02-21T09:38:41;100464.50;;;9.24;72.90
35307;BME280;21420;52.196;21.416;2024-02-21T09:41:25;100462.88;;;9.15;72.73
35307;BME280;21420;52.196;21.416;2024-02-21T09:43:54;100465.09;;;9.07;72.66
35307;BME280;21420;52.196;21.416;2024-02-21T09:46:40;100465.20;;;9.08;72.92
35307;BME280;21420;52.196;21.416;2024-02-21T09:51:55;100466.14;;;9.01;72.88
35307;BME280;21420;52.196;21.416;2024-02-21T09:54:23;100463.23;;;8.93;72.67
35307;BME280;21420;52.196;21.416;2024-02-21T09:56:50;100460.17;;;8.89;72.63
35307;BME280;21420;52.196;21.416;2024-02-21T09:59:16;100454.52;;;8.80;72.41
35307;BME280;21420;52.196;21.416;2024-02-21T10:01:44;100451.38;;;8.70;72.52
35307;BME280;21420;52.196;21.416;2024-02-21T10:04:11;100445.63;;;8.62;72.61
35307;BME280;21420;52.196;21.416;2024-02-21T10:06:38;100446.69;;;8.56;72.84
35307;BME280;21420;52.196;21.416;2024-02-21T10:09:06;100443.06;;;8.50;72.79
35307;BME280;21420;52.196;21.416;2024-02-21T10:11:33;100441.70;;;8.48;72.75
35307;BME280;21420;52.196;21.416;2024-02-21T10:14:07;100437.86;;;8.49;72.82
35307;BME280;21420;52.196;21.416;2024-02-21T10:16:35;100434.96;;;8.50;72.76
35307;BME280;21420;52.196;21.416;2024-02-21T10:19:04;100434.84;;;8.49;72.80
35307;BME280;21420;52.196;21.416;2024-02-21T10:21:31;100437.21;;;8.45;72.73
35307;BME280;21420;52.196;21.416;2024-02-21T10:23:58;100430.89;;;8.37;72.53
35307;BME280;21420;52.196;21.416;2024-02-21T10:26:24;100424.10;;;8.28;72.52
35307;BME280;21420;52.196;21.416;2024-02-21T10:28:51;100423.11;;;8.27;72.76
35307;BME280;21420;52.196;21.416;2024-02-21T10:31:27;100421.20;;;8.26;72.80
35307;BME280;21420;52.196;21.416;2024-02-21T10:33:59;100416.98;;;8.24;72.74
35307;BME280;21420;52.196;21.416;2024-02-21T10:36:30;100409.81;;;8.25;72.66
35307;BME280;21420;52.196;21.416;2024-02-21T10:38:57;100405.68;;;8.26;72.84
35307;BME280;21420;52.196;21.416;2024-02-21T10:41:24;100406.29;;;8.31;72.92
35307;BME280;21420;52.196;21.416;2024-02-21T10:43:55;100405.06;;;8.33;72.86
35307;BME280;21420;52.196;21.416;2024-02-21T10:46:24;100403.70;;;8.36;72.68
35307;BME280;21420;52.196;21.416;2024-02-21T10:49:08;100401.05;;;8.41;72.92
35307;BME280;21420;52.196;21.416;2024-02-21T10:51:43;100396.34;;;8.47;72.99
35307;BME280;21420;52.196;21.416;2024-02-21T10:54:23;100392.61;;;8.52;73.03
35307;BME280;21420;52.196;21.416;2024-02-21T10:56:56;100394.95;;;8.58;72.88
35307;BME280;21420;52.196;21.416;2024-02-21T10:59:25;100390.27;;;8.59;72.81
35307;BME280;21420;52.196;21.416;2024-02-21T11:01:53;100386.86;;;8.65;73.04
35307;BME280;21420;52.196;21.416;2024-02-21T11:04:25;100386.08;;;8.67;72.85
35307;BME280;21420;52.196;21.416;2024-02-21T11:06:54;100382.23;;;8.66;72.83
35307;BME280;21420;52.196;21.416;2024-02-21T11:09:29;100379.80;;;8.65;72.87
35307;BME280;21420;52.196;21.416;2024-02-21T11:11:57;100374.43;;;8.64;72.68
35307;BME280;21420;52.196;21.416;2024-02-21T11:14:27;100374.53;;;8.61;72.62
35307;BME280;21420;52.196;21.416;2024-02-21T11:16:54;100368.20;;;8.61;72.75
35307;BME280;21420;52.196;21.416;2024-02-21T11:19:25;100369.02;;;8.63;72.68
35307;BME280;21420;52.196;21.416;2024-02-21T11:21:53;100362.81;;;8.63;72.59
35307;BME280;21420;52.196;21.416;2024-02-21T11:24:33;100360.56;;;8.63;72.65
35307;BME280;21420;52.196;21.416;2024-02-21T11:27:19;100348.36;;;8.67;72.74
35307;BME280;21420;52.196;21.416;2024-02-21T11:29:56;100339.34;;;8.73;72.71
35307;BME280;21420;52.196;21.416;2024-02-21T11:32:25;100339.64;;;8.73;72.51
35307;BME280;21420;52.196;21.416;2024-02-21T11:35:00;100339.55;;;8.64;72.37
35307;BME280;21420;52.196;21.416;2024-02-21T11:37:35;100331.64;;;8.54;72.47
35307;BME280;21420;52.196;21.416;2024-02-21T11:40:06;100329.27;;;8.53;72.50
35307;BME280;21420;52.196;21.416;2024-02-21T11:42:37;100330.88;;;8.52;72.55
35307;BME280;21420;52.196;21.416;2024-02-21T11:45:04;100330.36;;;8.53;72.52
35307;BME280;21420;52.196;21.416;2024-02-21T11:47:31;100327.56;;;8.53;72.54
35307;BME280;21420;52.196;21.416;2024-02-21T11:49:58;100326.53;;;8.57;72.63
35307;BME280;21420;52.196;21.416;2024-02-21T11:52:26;100332.98;;;8.60;72.76
35307;BME280;21420;52.196;21.416;2024-02-21T11:54:55;100324.38;;;8.61;72.72
35307;BME280;21420;52.196;21.416;2024-02-21T11:57:24;100323.52;;;8.61;72.70
35307;BME280;21420;52.196;21.416;2024-02-21T11:59:51;100323.25;;;8.57;72.53
35307;BME280;21420;52.196;21.416;2024-02-21T12:02:26;100324.59;;;8.48;72.68
35307;BME280;21420;52.196;21.416;2024-02-21T12:04:53;100325.15;;;8.40;72.57
35307;BME280;21420;52.196;21.416;2024-02-21T12:07:22;100325.15;;;8.35;72.48
35307;BME280;21420;52.196;21.416;2024-02-21T12:09:51;100319.15;;;8.29;72.51
35307;BME280;21420;52.196;21.416;2024-02-21T12:12:20;100318.23;;;8.26;72.58
35307;BME280;21420;52.196;21.416;2024-02-21T12:14:55;100319.95;;;8.21;72.53
35307;BME280;21420;52.196;21.416;2024-02-21T12:17:23;100317.04;;;8.10;72.43
35307;BME280;21420;52.196;21.416;2024-02-21T12:19:50;100310.10;;;8.01;72.38
35307;BME280;21420;52.196;21.416;2024-02-21T12:22:18;100306.80;;;7.95;72.61
35307;BME280;21420;52.196;21.416;2024-02-21T12:24:46;100307.70;;;7.88;72.59
35307;BME280;21420;52.196;21.416;2024-02-21T12:27:15;100307.16;;;7.81;72.52
35307;BME280;21420;52.196;21.416;2024-02-21T12:29:42;100304.88;;;7.74;72.45
35307;BME280;21420;52.196;21.416;2024-02-21T12:32:09;100303.88;;;7.67;72.54
35307;BME280;21420;52.196;21.416;2024-02-21T12:34:36;100290.06;;;7.59;72.46
35307;BME280;21420;52.196;21.416;2024-02-21T12:37:19;100292.77;;;7.50;72.62
35307;BME280;21420;52.196;21.416;2024-02-21T12:39:47;100290.77;;;7.43;72.54
35307;BME280;21420;52.196;21.416;2024-02-21T12:42:15;100288.27;;;7.42;72.73
35307;BME280;21420;52.196;21.416;2024-02-21T12:44:41;100285.99;;;7.38;72.75
35307;BME280;21420;52.196;21.416;2024-02-21T12:47:09;100287.05;;;7.33;72.82
35307;BME280;21420;52.196;21.416;2024-02-21T12:49:36;100286.65;;;7.29;72.83
35307;BME280;21420;52.196;21.416;2024-02-21T12:52:05;100279.37;;;7.25;72.83
35307;BME280;21420;52.196;21.416;2024-02-21T12:54:31;100277.90;;;7.23;72.92
35307;BME280;21420;52.196;21.416;2024-02-21T12:56:58;100277.23;;;7.22;72.98
35307;BME280;21420;52.196;21.416;2024-02-21T12:59:29;100272.80;;;7.21;73.16